NY/NJ Local METAR Reports

 

KNYC - NYC/Central Park, NY, USA
Distance from Hoboken: NE 4mi, 7km
Updated: 09/24/2018 12:51am
Clear
Clear
 Wind from ENE
Wind: ENE 5 mph , 7 km/h
Temperature: 63°F , 17°C
Dew Point: 55°F , 13°C
Humidity: 77%
Barometer: 30.33 inHg , 1027.1 hPa
Clouds: Clear
Visibility: 10 miles , 16 km
2018/09/24 04:51 KNYC 240451Z AUTO 06004KT 10SM CLR 17/13 A3033 RMK AO2 SLP262 T01720133 401890156 $
KEWR - Newark, NJ, USA
Distance from Hoboken: WSW 8mi, 13km
Updated: 09/24/2018 12:51am
Mostly cloudy
Mostly cloudy
 Wind from NNE
Wind: NNE 7 mph , 11 km/h
Temperature: 63°F , 17°C
Dew Point: 55°F , 13°C
Humidity: 77%
Barometer: 30.30 inHg , 1026.1 hPa
Clouds: Mostly cloudy
Visibility: 10 miles , 16 km
Cloud details: Partly cloudy 2800 ft
Mostly cloudy 4500 ft
Mostly cloudy 24000 ft
2018/09/24 04:51 KEWR 240451Z 02006KT 10SM SCT028 BKN045 BKN240 17/13 A3030 RMK AO2 SLP258 T01670133 401890144
 
KLGA - NYC/La Guardia, NY, USA
Distance from Hoboken: ENE 8mi, 13km
Updated: 09/24/2018 12:51am
Mostly cloudy
Mostly cloudy
 Wind from NNE
Wind: NNE 8 mph , 13 km/h
Temperature: 64°F , 18°C
Dew Point: 55°F , 13°C
Humidity: 73%
Barometer: 30.30 inHg , 1026.1 hPa
Clouds: Mostly cloudy
Visibility: 10 miles , 16 km
Cloud details: Few Clouds 2500 ft
Partly cloudy 5000 ft
Mostly cloudy 25000 ft
2018/09/24 04:51 KLGA 240451Z 03007KT 10SM FEW025 SCT050 BKN250 18/13 A3030 RMK AO2 SLP260 T01830133 402000167 $
KTEB - Teterboro, NJ, USA
Distance from Hoboken: N 9mi, 14km
Updated: 09/24/2018 12:51am
Partly cloudy
Partly cloudy
 Wind from N
Wind: N 6 mph , 9 km/h
Temperature: 63°F , 17°C
Dew Point: 57°F , 14°C
Humidity: 83%
Barometer: 30.30 inHg , 1026.1 hPa
Clouds: Partly cloudy
Visibility: 10 miles , 16 km
Cloud details: Partly cloudy 4300 ft
2018/09/24 04:51 KTEB 240451Z 01005KT 10SM SCT043 17/14 A3030 RMK AO2 SLP260 T01670144 401940150
 
KJFK - NYC/Jfk Arpt, NY, USA
Distance from Hoboken: ESE 16mi, 25km
Updated: 09/24/2018 12:51am
Overcast
Overcast
 Wind from NNE
Wind: NNE 7 mph , 11 km/h
Temperature: 63°F , 17°C
Dew Point: 61°F , 16°C
Humidity: 94%
Barometer: 30.31 inHg , 1026.4 hPa
Clouds: Overcast
Visibility: 10 miles , 16 km
Cloud details: Few Clouds 2000 ft
Mostly cloudy 4500 ft
Overcast 24000 ft
2018/09/24 04:51 KJFK 240451Z 03006KT 10SM FEW020 BKN045 OVC240 17/16 A3031 RMK AO2 SLP264 T01720161 402060161
KCDW - Caldwell, NJ, USA
Distance from Hoboken: NW 16mi, 26km
Updated: 09/24/2018 1:22am
Mostly cloudy
Mostly cloudy
 Wind from calm
Wind: Calm
Temperature: 57°F , 14°C
Dew Point: 57°F , 14°C
Humidity: 100%
Barometer: 30.32 inHg , 1026.8 hPa
Clouds: Mostly cloudy
Visibility: 10 miles , 16 km
Cloud details: Partly cloudy 2300 ft
Mostly cloudy 4200 ft
2018/09/24 05:22 KCDW 240522Z AUTO 00000KT 10SM SCT023 BKN042 14/14 A3032 RMK AO2 T01440139
 
KMMU - Morristown Muni, NJ, USA
Distance from Hoboken: W 20mi, 33km
Updated: 09/24/2018 1:15am
Overcast
Overcast
 Wind from NE
Wind: NE 3 mph , 6 km/h
Temperature: 59°F , 15°C
Dew Point: 57°F , 14°C
Humidity: 94%
Barometer: 30.31 inHg , 1026.4 hPa
Clouds: Overcast
Visibility: 10 miles , 16 km
Cloud details: Overcast 3200 ft
2018/09/24 05:15 KMMU 240515Z AUTO 04003KT 10SM OVC032 15/14 A3031 RMK AO2
KHPN - White Plains, NY, USA
Distance from Hoboken: NE 28mi, 46km
Updated: 09/24/2018 12:56am
Overcast
Overcast
 Wind from NNE
Wind: NNE 3 mph , 6 km/h
Temperature: 59°F , 15°C
Dew Point: 55°F , 13°C
Humidity: 88%
Barometer: 30.32 inHg , 1026.8 hPa
Clouds: Overcast
Visibility: 10 miles , 16 km
Cloud details: Overcast 3500 ft
2018/09/24 04:56 KHPN 240456Z 03003KT 10SM OVC035 15/13 A3032 RMK AO2 SLP265 T01500128 401780133
 
KFRG - Farmingdale, NY, USA
Distance from Hoboken: E 32mi, 52km
Updated: 09/24/2018 12:53am
Mostly cloudy
Mostly cloudy
 Wind from ENE
Wind: ENE 6 mph , 9 km/h
Temperature: 63°F , 17°C
Dew Point: 57°F , 14°C
Humidity: 83%
Barometer: 30.30 inHg , 1026.1 hPa
Clouds: Mostly cloudy
Visibility: 10 miles , 16 km
Cloud details: Mostly cloudy 4500 ft
2018/09/24 04:53 KFRG 240453Z AUTO 06005KT 10SM BKN045 17/14 A3030 RMK AO2 SLP261 T01670139 401890156
KSMQ - Somerville, NJ, USA
Distance from Hoboken: WSW 34mi, 55km
Updated: 09/24/2018 1:29am
Overcast
Overcast
 Wind from N
Wind: N 5 mph , 7 km/h
Temperature: 63°F , 17°C
Dew Point: 57°F , 14°C
Humidity: 83%
Barometer: 30.29 inHg , 1025.7 hPa
Clouds: Overcast
Visibility: 10 miles , 16 km
Cloud details: Overcast 3000 ft
2018/09/24 05:29 KSMQ 240529Z AUTO 01004KT 10SM OVC030 17/14 A3029 RMK AO2 T01670139
 
KBLM - Belmar/Farmdale, NJ, USA
Distance from Hoboken: S 40mi, 64km
Updated: 09/24/2018 1:20am
Light rain, Mist, Overcast
Light rain, Mist, Overcast
 Wind from calm
Wind: Calm
Temperature: 63°F , 17°C
Dew Point: 61°F , 16°C
Humidity: 94%
Barometer: 30.31 inHg , 1026.4 hPa
Summary: Light rain, Mist
Clouds: Overcast
Visibility: 6 miles , 10 km
Cloud details: Mostly cloudy 500 ft
Overcast 1000 ft
2018/09/24 05:20 KBLM 240520Z AUTO 00000KT 6SM -RA BR BKN005 OVC010 17/16 A3031 RMK AO2 CIG 003V008 P0001
K12N - Andover, NJ, USA
Distance from Hoboken: WNW 41mi, 67km
Updated: 09/24/2018 12:54am

 Wind from calm
Wind: Calm
Temperature: 54°F , 12°C
Dew Point: 52°F , 11°C
Humidity: 94%
Barometer: 30.33 inHg , 1027.1 hPa
2018/09/24 04:54 K12N 240454Z AUTO 00000KT 12/11 A3033 RMK AO1 SLP269 T01170111 401720117
 
KFWN - Sussex, NJ, USA
Distance from Hoboken: NW 45mi, 72km
Updated: 09/24/2018 12:53am
Mostly cloudy
Mostly cloudy
 Wind from calm
Wind: Calm
Temperature: 50°F , 10°C
Dew Point: 48°F , 9°C
Humidity: 94%
Barometer: 30.33 inHg , 1027.1 hPa
Clouds: Mostly cloudy
Visibility: 10 miles , 16 km
Cloud details: Mostly cloudy 200 ft
2018/09/24 04:53 KFWN 240453Z AUTO 00000KT 10SM BKN002 10/09 A3033 RMK AO2 SLP272 T01000094 401720094
KISP - Islip, NY, USA
Distance from Hoboken: E 49mi, 79km
Updated: 09/24/2018 12:56am
Overcast
Overcast
 Wind from ENE
Wind: ENE 5 mph , 7 km/h
Temperature: 63°F , 17°C
Dew Point: 59°F , 15°C
Humidity: 88%
Barometer: 30.31 inHg , 1026.4 hPa
Clouds: Overcast
Visibility: 10 miles , 16 km
Cloud details: Overcast 4200 ft
2018/09/24 04:56 KISP 240456Z AUTO 06004KT 10SM OVC042 17/15 A3031 RMK AO2 SLP262 T01670150 401940161